sensor_id;sensor_type;location;lat;lon;timestamp;temperature;humidity
35700;DHT22;21818;51.078;12.108;2022-07-10T00:00:38;18.90;74.90
35700;DHT22;21818;51.078;12.108;2022-07-10T00:03:04;19.00;74.60
35700;DHT22;21818;51.078;12.108;2022-07-10T00:05:31;19.00;74.30
35700;DHT22;21818;51.078;12.108;2022-07-10T00:07:56;19.00;74.20
35700;DHT22;21818;51.078;12.108;2022-07-10T00:10:23;19.00;74.10
35700;DHT22;21818;51.078;12.108;2022-07-10T00:12:50;18.90;73.90
35700;DHT22;21818;51.078;12.108;2022-07-10T00:15:17;18.80;74.00
35700;DHT22;21818;51.078;12.108;2022-07-10T00:17:43;18.80;73.90
35700;DHT22;21818;51.078;12.108;2022-07-10T00:20:11;18.90;73.90
35700;DHT22;21818;51.078;12.108;2022-07-10T00:22:37;18.90;73.80
35700;DHT22;21818;51.078;12.108;2022-07-10T00:25:07;18.80;73.70
35700;DHT22;21818;51.078;12.108;2022-07-10T00:27:34;18.80;73.70
35700;DHT22;21818;51.078;12.108;2022-07-10T00:29:59;18.80;73.70
35700;DHT22;21818;51.078;12.108;2022-07-10T00:32:25;18.80;73.80
35700;DHT22;21818;51.078;12.108;2022-07-10T00:34:51;18.80;73.80
35700;DHT22;21818;51.078;12.108;2022-07-10T00:37:17;18.80;73.80
35700;DHT22;21818;51.078;12.108;2022-07-10T00:39:43;18.70;73.70
35700;DHT22;21818;51.078;12.108;2022-07-10T00:42:11;18.80;73.70
35700;DHT22;21818;51.078;12.108;2022-07-10T00:44:37;18.80;73.60
35700;DHT22;21818;51.078;12.108;2022-07-10T00:47:04;18.80;73.60
35700;DHT22;21818;51.078;12.108;2022-07-10T00:49:31;18.80;74.00
35700;DHT22;21818;51.078;12.108;2022-07-10T00:51:58;18.70;73.40
35700;DHT22;21818;51.078;12.108;2022-07-10T00:54:25;18.80;73.40
35700;DHT22;21818;51.078;12.108;2022-07-10T00:56:51;18.70;73.50
35700;DHT22;21818;51.078;12.108;2022-07-10T00:59:18;18.60;73.60
35700;DHT22;21818;51.078;12.108;2022-07-10T01:01:44;18.60;73.60
35700;DHT22;21818;51.078;12.108;2022-07-10T01:04:10;18.60;73.80
35700;DHT22;21818;51.078;12.108;2022-07-10T01:06:36;18.50;73.70
35700;DHT22;21818;51.078;12.108;2022-07-10T01:09:02;18.50;73.80
35700;DHT22;21818;51.078;12.108;2022-07-10T01:11:28;18.50;73.90
35700;DHT22;21818;51.078;12.108;2022-07-10T01:13:53;18.60;73.90
35700;DHT22;21818;51.078;12.108;2022-07-10T01:16:19;18.60;73.80
35700;DHT22;21818;51.078;12.108;2022-07-10T01:18:45;18.60;73.70
35700;DHT22;21818;51.078;12.108;2022-07-10T01:23:53;18.50;73.70
35700;DHT22;21818;51.078;12.108;2022-07-10T01:26:20;18.60;73.80
35700;DHT22;21818;51.078;12.108;2022-07-10T01:28:50;18.60;73.70
35700;DHT22;21818;51.078;12.108;2022-07-10T01:31:26;18.60;73.60
35700;DHT22;21818;51.078;12.108;2022-07-10T01:33:55;18.60;73.70
35700;DHT22;21818;51.078;12.108;2022-07-10T01:36:22;18.60;73.40
35700;DHT22;21818;51.078;12.108;2022-07-10T01:38:47;18.60;73.40
35700;DHT22;21818;51.078;12.108;2022-07-10T01:41:13;18.50;73.50
35700;DHT22;21818;51.078;12.108;2022-07-10T01:43:39;18.50;73.60
35700;DHT22;21818;51.078;12.108;2022-07-10T01:46:08;18.60;73.50
35700;DHT22;21818;51.078;12.108;2022-07-10T01:48:34;18.60;73.40
35700;DHT22;21818;51.078;12.108;2022-07-10T01:50:59;18.60;73.40
35700;DHT22;21818;51.078;12.108;2022-07-10T01:53:25;18.50;73.20
35700;DHT22;21818;51.078;12.108;2022-07-10T01:55:50;18.50;73.40
35700;DHT22;21818;51.078;12.108;2022-07-10T01:58:16;18.60;73.30
35700;DHT22;21818;51.078;12.108;2022-07-10T02:00:42;18.50;73.20
35700;DHT22;21818;51.078;12.108;2022-07-10T02:03:07;18.50;73.30
35700;DHT22;21818;51.078;12.108;2022-07-10T02:05:51;18.50;73.20
35700;DHT22;21818;51.078;12.108;2022-07-10T02:08:17;18.60;73.10
35700;DHT22;21818;51.078;12.108;2022-07-10T02:10:42;18.60;72.80
35700;DHT22;21818;51.078;12.108;2022-07-10T02:13:09;18.60;72.80
35700;DHT22;21818;51.078;12.108;2022-07-10T02:15:35;18.50;72.90
35700;DHT22;21818;51.078;12.108;2022-07-10T02:18:00;18.50;73.30
35700;DHT22;21818;51.078;12.108;2022-07-10T02:20:26;18.50;72.90
35700;DHT22;21818;51.078;12.108;2022-07-10T02:22:51;18.40;72.80
35700;DHT22;21818;51.078;12.108;2022-07-10T02:25:17;18.50;72.70
35700;DHT22;21818;51.078;12.108;2022-07-10T02:27:43;18.50;72.70
35700;DHT22;21818;51.078;12.108;2022-07-10T02:30:08;18.50;72.70
35700;DHT22;21818;51.078;12.108;2022-07-10T02:32:34;18.50;72.50
35700;DHT22;21818;51.078;12.108;2022-07-10T02:35:00;18.50;72.50
35700;DHT22;21818;51.078;12.108;2022-07-10T02:37:25;18.50;72.40
35700;DHT22;21818;51.078;12.108;2022-07-10T02:39:51;18.50;72.30
35700;DHT22;21818;51.078;12.108;2022-07-10T02:42:16;18.50;72.30
35700;DHT22;21818;51.078;12.108;2022-07-10T02:44:42;18.50;72.20
35700;DHT22;21818;51.078;12.108;2022-07-10T02:47:07;18.50;72.10
35700;DHT22;21818;51.078;12.108;2022-07-10T02:49:33;18.60;72.20
35700;DHT22;21818;51.078;12.108;2022-07-10T02:51:58;18.50;72.10
35700;DHT22;21818;51.078;12.108;2022-07-10T02:54:24;18.50;72.10
35700;DHT22;21818;51.078;12.108;2022-07-10T02:56:50;18.50;72.00
35700;DHT22;21818;51.078;12.108;2022-07-10T02:59:16;18.50;72.10
35700;DHT22;21818;51.078;12.108;2022-07-10T03:01:42;18.40;72.00
35700;DHT22;21818;51.078;12.108;2022-07-10T03:04:07;18.40;72.10
35700;DHT22;21818;51.078;12.108;2022-07-10T03:06:33;18.40;72.10
35700;DHT22;21818;51.078;12.108;2022-07-10T03:08:59;18.40;72.00
35700;DHT22;21818;51.078;12.108;2022-07-10T03:11:24;18.40;72.00
35700;DHT22;21818;51.078;12.108;2022-07-10T03:13:50;18.40;72.00
35700;DHT22;21818;51.078;12.108;2022-07-10T03:16:15;18.40;72.00
35700;DHT22;21818;51.078;12.108;2022-07-10T03:18:41;18.40;72.00
35700;DHT22;21818;51.078;12.108;2022-07-10T03:21:06;18.40;71.90
35700;DHT22;21818;51.078;12.108;2022-07-10T03:23:32;18.30;72.10
35700;DHT22;21818;51.078;12.108;2022-07-10T03:25:57;18.30;72.20
35700;DHT22;21818;51.078;12.108;2022-07-10T03:28:23;18.30;72.10
35700;DHT22;21818;51.078;12.108;2022-07-10T03:30:48;18.30;72.60
35700;DHT22;21818;51.078;12.108;2022-07-10T03:33:14;18.40;72.10
35700;DHT22;21818;51.078;12.108;2022-07-10T03:35:39;18.40;71.90
35700;DHT22;21818;51.078;12.108;2022-07-10T03:38:05;18.40;71.90
35700;DHT22;21818;51.078;12.108;2022-07-10T03:40:30;18.30;71.90
35700;DHT22;21818;51.078;12.108;2022-07-10T03:42:56;18.30;71.80
35700;DHT22;21818;51.078;12.108;2022-07-10T03:45:22;18.30;71.90
35700;DHT22;21818;51.078;12.108;2022-07-10T03:47:47;18.30;71.80
35700;DHT22;21818;51.078;12.108;2022-07-10T03:50:13;18.40;71.90
35700;DHT22;21818;51.078;12.108;2022-07-10T03:52:38;18.40;71.90
35700;DHT22;21818;51.078;12.108;2022-07-10T03:55:05;18.40;71.90
35700;DHT22;21818;51.078;12.108;2022-07-10T03:57:30;18.40;71.80
35700;DHT22;21818;51.078;12.108;2022-07-10T04:00:14;18.40;71.90
35700;DHT22;21818;51.078;12.108;2022-07-10T04:02:40;18.40;71.80
35700;DHT22;21818;51.078;12.108;2022-07-10T04:05:07;18.40;71.80
35700;DHT22;21818;51.078;12.108;2022-07-10T04:07:34;18.40;71.80
35700;DHT22;21818;51.078;12.108;2022-07-10T04:09:59;18.40;71.90
35700;DHT22;21818;51.078;12.108;2022-07-10T04:12:25;18.40;72.00
35700;DHT22;21818;51.078;12.108;2022-07-10T04:14:51;18.40;72.00
35700;DHT22;21818;51.078;12.108;2022-07-10T04:17:17;18.40;72.00
35700;DHT22;21818;51.078;12.108;2022-07-10T04:19:43;18.40;72.00
35700;DHT22;21818;51.078;12.108;2022-07-10T04:22:09;18.50;72.00
35700;DHT22;21818;51.078;12.108;2022-07-10T04:24:35;18.40;72.50
35700;DHT22;21818;51.078;12.108;2022-07-10T04:27:00;18.40;72.00
35700;DHT22;21818;51.078;12.108;2022-07-10T04:29:26;18.40;72.00
35700;DHT22;21818;51.078;12.108;2022-07-10T04:31:52;18.40;72.10
35700;DHT22;21818;51.078;12.108;2022-07-10T04:34:18;18.40;72.20
35700;DHT22;21818;51.078;12.108;2022-07-10T04:36:43;18.40;72.30
35700;DHT22;21818;51.078;12.108;2022-07-10T04:39:09;18.40;72.30
35700;DHT22;21818;51.078;12.108;2022-07-10T04:41:35;18.50;72.10
35700;DHT22;21818;51.078;12.108;2022-07-10T04:44:01;18.50;72.20
35700;DHT22;21818;51.078;12.108;2022-07-10T04:46:27;18.50;72.30
35700;DHT22;21818;51.078;12.108;2022-07-10T04:48:52;18.50;72.30
35700;DHT22;21818;51.078;12.108;2022-07-10T04:51:18;18.50;72.30
35700;DHT22;21818;51.078;12.108;2022-07-10T04:53:44;18.50;72.30
35700;DHT22;21818;51.078;12.108;2022-07-10T04:56:09;18.50;72.40
35700;DHT22;21818;51.078;12.108;2022-07-10T04:58:35;18.50;72.50
35700;DHT22;21818;51.078;12.108;2022-07-10T05:01:01;18.50;72.50
35700;DHT22;21818;51.078;12.108;2022-07-10T05:03:28;18.60;72.50
35700;DHT22;21818;51.078;12.108;2022-07-10T05:05:54;18.60;72.40
35700;DHT22;21818;51.078;12.108;2022-07-10T05:08:19;18.60;72.30
35700;DHT22;21818;51.078;12.108;2022-07-10T05:10:45;18.60;72.40
35700;DHT22;21818;51.078;12.108;2022-07-10T05:13:11;18.60;72.50
35700;DHT22;21818;51.078;12.108;2022-07-10T05:15:37;18.60;72.60
35700;DHT22;21818;51.078;12.108;2022-07-10T05:18:03;18.60;72.60
35700;DHT22;21818;51.078;12.108;2022-07-10T05:20:28;18.50;72.70
35700;DHT22;21818;51.078;12.108;2022-07-10T05:22:54;18.50;73.00
35700;DHT22;21818;51.078;12.108;2022-07-10T05:25:19;18.50;72.90
35700;DHT22;21818;51.078;12.108;2022-07-10T05:27:45;18.50;73.00
35700;DHT22;21818;51.078;12.108;2022-07-10T05:30:11;18.50;73.20
35700;DHT22;21818;51.078;12.108;2022-07-10T05:32:46;18.40;73.30
35700;DHT22;21818;51.078;12.108;2022-07-10T05:35:13;18.40;73.60
35700;DHT22;21818;51.078;12.108;2022-07-10T05:37:39;18.30;73.80
35700;DHT22;21818;51.078;12.108;2022-07-10T05:40:06;18.40;73.90
35700;DHT22;21818;51.078;12.108;2022-07-10T05:42:32;18.40;74.50
35700;DHT22;21818;51.078;12.108;2022-07-10T05:44:57;18.40;74.00
35700;DHT22;21818;51.078;12.108;2022-07-10T05:47:23;18.30;74.00
35700;DHT22;21818;51.078;12.108;2022-07-10T05:49:48;18.30;74.10
35700;DHT22;21818;51.078;12.108;2022-07-10T05:52:14;18.40;74.00
35700;DHT22;21818;51.078;12.108;2022-07-10T05:54:39;18.40;73.90
35700;DHT22;21818;51.078;12.108;2022-07-10T05:57:05;18.40;73.80
35700;DHT22;21818;51.078;12.108;2022-07-10T05:59:34;18.50;73.70
35700;DHT22;21818;51.078;12.108;2022-07-10T06:02:01;18.50;73.60
35700;DHT22;21818;51.078;12.108;2022-07-10T06:04:26;18.60;73.50
35700;DHT22;21818;51.078;12.108;2022-07-10T06:06:52;18.60;74.00
35700;DHT22;21818;51.078;12.108;2022-07-10T06:09:18;18.50;73.40
35700;DHT22;21818;51.078;12.108;2022-07-10T06:11:44;18.60;73.30
35700;DHT22;21818;51.078;12.108;2022-07-10T06:14:11;18.50;73.40
35700;DHT22;21818;51.078;12.108;2022-07-10T06:16:37;18.50;73.50
35700;DHT22;21818;51.078;12.108;2022-07-10T06:19:03;18.50;73.20
35700;DHT22;21818;51.078;12.108;2022-07-10T06:21:28;18.50;73.20
35700;DHT22;21818;51.078;12.108;2022-07-10T06:23:54;18.50;73.10
35700;DHT22;21818;51.078;12.108;2022-07-10T06:26:20;18.60;73.00
35700;DHT22;21818;51.078;12.108;2022-07-10T06:28:45;18.60;72.90
35700;DHT22;21818;51.078;12.108;2022-07-10T06:31:11;18.70;72.80
35700;DHT22;21818;51.078;12.108;2022-07-10T06:33:37;18.70;72.60
35700;DHT22;21818;51.078;12.108;2022-07-10T06:36:03;18.80;72.50
35700;DHT22;21818;51.078;12.108;2022-07-10T06:38:29;18.70;72.30
35700;DHT22;21818;51.078;12.108;2022-07-10T06:40:54;18.80;72.20
35700;DHT22;21818;51.078;12.108;2022-07-10T06:43:20;18.80;72.10
35700;DHT22;21818;51.078;12.108;2022-07-10T06:45:45;18.80;71.90
35700;DHT22;21818;51.078;12.108;2022-07-10T06:48:11;18.90;71.70
35700;DHT22;21818;51.078;12.108;2022-07-10T06:50:37;18.90;72.10
35700;DHT22;21818;51.078;12.108;2022-07-10T06:53:03;18.90;71.50
35700;DHT22;21818;51.078;12.108;2022-07-10T06:55:29;18.90;71.50
35700;DHT22;21818;51.078;12.108;2022-07-10T06:57:56;18.90;71.30
35700;DHT22;21818;51.078;12.108;2022-07-10T07:00:22;18.90;71.30
35700;DHT22;21818;51.078;12.108;2022-07-10T07:02:47;18.90;71.40
35700;DHT22;21818;51.078;12.108;2022-07-10T07:05:13;18.80;71.90
35700;DHT22;21818;51.078;12.108;2022-07-10T07:07:39;18.60;72.20
35700;DHT22;21818;51.078;12.108;2022-07-10T07:10:05;18.60;72.30
35700;DHT22;21818;51.078;12.108;2022-07-10T07:12:32;18.60;72.30
35700;DHT22;21818;51.078;12.108;2022-07-10T07:14:57;18.60;72.40
35700;DHT22;21818;51.078;12.108;2022-07-10T07:17:23;18.60;72.60
35700;DHT22;21818;51.078;12.108;2022-07-10T07:19:51;18.60;72.70
35700;DHT22;21818;51.078;12.108;2022-07-10T07:22:36;18.60;72.80
35700;DHT22;21818;51.078;12.108;2022-07-10T07:25:21;18.60;72.80
35700;DHT22;21818;51.078;12.108;2022-07-10T07:27:47;18.50;73.00
35700;DHT22;21818;51.078;12.108;2022-07-10T07:30:14;18.50;73.10
35700;DHT22;21818;51.078;12.108;2022-07-10T07:32:41;18.50;73.40
35700;DHT22;21818;51.078;12.108;2022-07-10T07:35:07;18.40;73.70
35700;DHT22;21818;51.078;12.108;2022-07-10T07:37:47;18.40;74.00
35700;DHT22;21818;51.078;12.108;2022-07-10T07:40:15;18.40;74.20
35700;DHT22;21818;51.078;12.108;2022-07-10T07:42:41;18.40;74.30
35700;DHT22;21818;51.078;12.108;2022-07-10T07:45:07;18.40;74.30
35700;DHT22;21818;51.078;12.108;2022-07-10T07:48:02;18.40;74.40
35700;DHT22;21818;51.078;12.108;2022-07-10T07:50:33;18.40;74.50
35700;DHT22;21818;51.078;12.108;2022-07-10T07:53:00;18.40;74.50
35700;DHT22;21818;51.078;12.108;2022-07-10T07:55:27;18.50;74.50
35700;DHT22;21818;51.078;12.108;2022-07-10T07:57:54;18.50;74.40
35700;DHT22;21818;51.078;12.108;2022-07-10T08:00:21;18.60;74.40
35700;DHT22;21818;51.078;12.108;2022-07-10T08:02:50;18.60;74.40
35700;DHT22;21818;51.078;12.108;2022-07-10T08:05:16;18.60;74.40
35700;DHT22;21818;51.078;12.108;2022-07-10T08:07:48;18.70;74.40
35700;DHT22;21818;51.078;12.108;2022-07-10T08:10:16;18.70;74.30
35700;DHT22;21818;51.078;12.108;2022-07-10T08:12:43;18.80;74.10
35700;DHT22;21818;51.078;12.108;2022-07-10T08:15:10;18.80;73.80
35700;DHT22;21818;51.078;12.108;2022-07-10T08:17:36;18.90;73.70
35700;DHT22;21818;51.078;12.108;2022-07-10T08:20:04;18.90;73.60
35700;DHT22;21818;51.078;12.108;2022-07-10T08:22:29;18.90;73.40
35700;DHT22;21818;51.078;12.108;2022-07-10T08:24:55;18.90;73.40
35700;DHT22;21818;51.078;12.108;2022-07-10T08:27:22;18.90;73.20
35700;DHT22;21818;51.078;12.108;2022-07-10T08:29:47;19.00;73.10
35700;DHT22;21818;51.078;12.108;2022-07-10T08:32:13;19.00;73.00
35700;DHT22;21818;51.078;12.108;2022-07-10T08:34:39;19.10;72.90
35700;DHT22;21818;51.078;12.108;2022-07-10T08:37:04;19.10;72.70
35700;DHT22;21818;51.078;12.108;2022-07-10T08:39:30;19.20;72.40
35700;DHT22;21818;51.078;12.108;2022-07-10T08:41:57;19.10;72.40
35700;DHT22;21818;51.078;12.108;2022-07-10T08:44:22;19.10;72.30
35700;DHT22;21818;51.078;12.108;2022-07-10T08:46:48;19.20;72.20
35700;DHT22;21818;51.078;12.108;2022-07-10T08:49:16;19.20;72.00
35700;DHT22;21818;51.078;12.108;2022-07-10T08:54:22;19.30;71.70
35700;DHT22;21818;51.078;12.108;2022-07-10T08:56:48;19.30;71.60
35700;DHT22;21818;51.078;12.108;2022-07-10T08:59:14;19.30;71.50
35700;DHT22;21818;51.078;12.108;2022-07-10T09:01:40;19.30;71.30
35700;DHT22;21818;51.078;12.108;2022-07-10T09:04:06;19.30;71.30
35700;DHT22;21818;51.078;12.108;2022-07-10T09:06:32;19.30;71.20
35700;DHT22;21818;51.078;12.108;2022-07-10T09:09:05;19.30;71.10
35700;DHT22;21818;51.078;12.108;2022-07-10T09:11:32;19.30;70.90
35700;DHT22;21818;51.078;12.108;2022-07-10T09:14:00;19.30;70.90
35700;DHT22;21818;51.078;12.108;2022-07-10T09:16:28;19.40;70.80
35700;DHT22;21818;51.078;12.108;2022-07-10T09:18:54;19.40;70.60
35700;DHT22;21818;51.078;12.108;2022-07-10T09:21:20;19.50;70.50
35700;DHT22;21818;51.078;12.108;2022-07-10T09:23:45;19.40;70.40
35700;DHT22;21818;51.078;12.108;2022-07-10T09:26:11;19.50;70.50
35700;DHT22;21818;51.078;12.108;2022-07-10T09:28:37;19.50;70.50
35700;DHT22;21818;51.078;12.108;2022-07-10T09:31:03;19.50;70.40
35700;DHT22;21818;51.078;12.108;2022-07-10T09:33:30;19.50;70.30
35700;DHT22;21818;51.078;12.108;2022-07-10T09:43:45;19.50;69.70
35700;DHT22;21818;51.078;12.108;2022-07-10T09:46:11;19.50;69.60
35700;DHT22;21818;51.078;12.108;2022-07-10T09:48:37;19.50;69.50
35700;DHT22;21818;51.078;12.108;2022-07-10T09:51:05;19.50;69.50
35700;DHT22;21818;51.078;12.108;2022-07-10T09:53:32;19.50;69.50
35700;DHT22;21818;51.078;12.108;2022-07-10T09:56:01;19.50;69.50
35700;DHT22;21818;51.078;12.108;2022-07-10T09:58:29;19.40;69.40
35700;DHT22;21818;51.078;12.108;2022-07-10T10:00:57;19.40;69.40
35700;DHT22;21818;51.078;12.108;2022-07-10T10:03:24;19.30;69.50
35700;DHT22;21818;51.078;12.108;2022-07-10T10:05:55;19.30;69.40
35700;DHT22;21818;51.078;12.108;2022-07-10T10:08:34;19.30;69.40
35700;DHT22;21818;51.078;12.108;2022-07-10T10:11:03;19.30;69.40
35700;DHT22;21818;51.078;12.108;2022-07-10T10:13:29;19.30;69.40
35700;DHT22;21818;51.078;12.108;2022-07-10T10:15:58;19.30;69.20
35700;DHT22;21818;51.078;12.108;2022-07-10T10:18:26;19.30;69.20
35700;DHT22;21818;51.078;12.108;2022-07-10T10:20:53;19.30;69.20
35700;DHT22;21818;51.078;12.108;2022-07-10T10:25:54;19.40;68.90
35700;DHT22;21818;51.078;12.108;2022-07-10T10:28:21;19.50;68.70
35700;DHT22;21818;51.078;12.108;2022-07-10T10:30:53;19.50;68.60
35700;DHT22;21818;51.078;12.108;2022-07-10T10:35:58;19.60;68.30
35700;DHT22;21818;51.078;12.108;2022-07-10T10:38:24;19.60;68.30
35700;DHT22;21818;51.078;12.108;2022-07-10T10:40:50;19.60;68.10
35700;DHT22;21818;51.078;12.108;2022-07-10T10:43:24;19.60;68.10
35700;DHT22;21818;51.078;12.108;2022-07-10T10:45:51;19.50;68.20
35700;DHT22;21818;51.078;12.108;2022-07-10T10:48:19;19.50;68.10
35700;DHT22;21818;51.078;12.108;2022-07-10T10:50:52;19.50;68.10
35700;DHT22;21818;51.078;12.108;2022-07-10T10:53:20;19.50;68.00
35700;DHT22;21818;51.078;12.108;2022-07-10T10:58:41;19.40;68.10
35700;DHT22;21818;51.078;12.108;2022-07-10T11:06:52;19.60;67.70
35700;DHT22;21818;51.078;12.108;2022-07-10T11:09:29;19.60;67.70
35700;DHT22;21818;51.078;12.108;2022-07-10T11:12:12;19.60;67.70
35700;DHT22;21818;51.078;12.108;2022-07-10T11:14:47;19.60;67.70
35700;DHT22;21818;51.078;12.108;2022-07-10T11:17:14;19.60;67.50
35700;DHT22;21818;51.078;12.108;2022-07-10T11:19:40;19.60;67.40
35700;DHT22;21818;51.078;12.108;2022-07-10T11:24:57;19.70;67.00
35700;DHT22;21818;51.078;12.108;2022-07-10T11:30:26;19.80;66.80
35700;DHT22;21818;51.078;12.108;2022-07-10T11:32:52;19.90;66.80
35700;DHT22;21818;51.078;12.108;2022-07-10T11:35:18;19.90;66.60
35700;DHT22;21818;51.078;12.108;2022-07-10T11:37:53;20.00;66.50
35700;DHT22;21818;51.078;12.108;2022-07-10T11:40:19;20.10;66.70
35700;DHT22;21818;51.078;12.108;2022-07-10T11:42:50;20.10;66.10
35700;DHT22;21818;51.078;12.108;2022-07-10T11:45:32;20.20;65.80
35700;DHT22;21818;51.078;12.108;2022-07-10T11:47:59;20.20;65.40
35700;DHT22;21818;51.078;12.108;2022-07-10T11:50:26;20.20;65.30
35700;DHT22;21818;51.078;12.108;2022-07-10T11:52:52;20.20;65.10
35700;DHT22;21818;51.078;12.108;2022-07-10T11:55:21;20.30;64.90
35700;DHT22;21818;51.078;12.108;2022-07-10T11:57:47;20.30;64.80
35700;DHT22;21818;51.078;12.108;2022-07-10T12:00:27;20.30;64.50
35700;DHT22;21818;51.078;12.108;2022-07-10T12:02:54;20.30;64.30
35700;DHT22;21818;51.078;12.108;2022-07-10T12:05:37;20.30;64.40
35700;DHT22;21818;51.078;12.108;2022-07-10T12:08:04;20.30;64.40
35700;DHT22;21818;51.078;12.108;2022-07-10T12:10:32;20.30;64.20
35700;DHT22;21818;51.078;12.108;2022-07-10T12:13:11;20.30;64.00
35700;DHT22;21818;51.078;12.108;2022-07-10T12:15:39;20.30;63.80
35700;DHT22;21818;51.078;12.108;2022-07-10T12:18:14;20.30;63.60
35700;DHT22;21818;51.078;12.108;2022-07-10T12:20:40;20.40;63.40
35700;DHT22;21818;51.078;12.108;2022-07-10T12:23:11;20.50;63.30
35700;DHT22;21818;51.078;12.108;2022-07-10T12:25:38;20.50;63.10
35700;DHT22;21818;51.078;12.108;2022-07-10T12:28:04;20.50;62.90
35700;DHT22;21818;51.078;12.108;2022-07-10T12:30:40;20.60;62.60
35700;DHT22;21818;51.078;12.108;2022-07-10T12:33:10;20.60;62.30
35700;DHT22;21818;51.078;12.108;2022-07-10T12:35:50;20.70;62.40
35700;DHT22;21818;51.078;12.108;2022-07-10T12:38:21;20.60;62.20
35700;DHT22;21818;51.078;12.108;2022-07-10T12:40:47;20.50;62.10
35700;DHT22;21818;51.078;12.108;2022-07-10T12:43:23;20.50;62.20
35700;DHT22;21818;51.078;12.108;2022-07-10T12:46:11;20.50;62.00
35700;DHT22;21818;51.078;12.108;2022-07-10T12:48:38;20.50;61.60
35700;DHT22;21818;51.078;12.108;2022-07-10T12:51:24;20.50;61.70
35700;DHT22;21818;51.078;12.108;2022-07-10T12:53:50;20.70;61.10
35700;DHT22;21818;51.078;12.108;2022-07-10T12:56:36;21.00;60.60
35700;DHT22;21818;51.078;12.108;2022-07-10T12:59:05;20.90;60.10
35700;DHT22;21818;51.078;12.108;2022-07-10T13:01:43;20.80;60.50
35700;DHT22;21818;51.078;12.108;2022-07-10T13:04:10;20.70;60.60
35700;DHT22;21818;51.078;12.108;2022-07-10T13:06:37;20.60;60.70
35700;DHT22;21818;51.078;12.108;2022-07-10T13:09:18;20.60;60.70
35700;DHT22;21818;51.078;12.108;2022-07-10T13:11:44;20.60;60.60
35700;DHT22;21818;51.078;12.108;2022-07-10T13:14:09;20.50;60.50
35700;DHT22;21818;51.078;12.108;2022-07-10T13:16:35;20.70;60.20
35700;DHT22;21818;51.078;12.108;2022-07-10T13:19:01;21.40;58.70
35700;DHT22;21818;51.078;12.108;2022-07-10T13:21:26;22.20;57.10
35700;DHT22;21818;51.078;12.108;2022-07-10T13:23:52;22.50;56.30
35700;DHT22;21818;51.078;12.108;2022-07-10T13:26:17;22.30;56.70
35700;DHT22;21818;51.078;12.108;2022-07-10T13:28:43;21.90;57.40
35700;DHT22;21818;51.078;12.108;2022-07-10T13:31:08;21.70;57.60
35700;DHT22;21818;51.078;12.108;2022-07-10T13:33:34;22.00;57.00
35700;DHT22;21818;51.078;12.108;2022-07-10T13:36:02;22.20;56.60
35700;DHT22;21818;51.078;12.108;2022-07-10T13:38:28;22.10;56.90
35700;DHT22;21818;51.078;12.108;2022-07-10T13:40:54;21.90;57.20
35700;DHT22;21818;51.078;12.108;2022-07-10T13:43:19;21.70;57.50
35700;DHT22;21818;51.078;12.108;2022-07-10T13:45:46;21.60;57.60
35700;DHT22;21818;51.078;12.108;2022-07-10T13:48:13;21.50;57.60
35700;DHT22;21818;51.078;12.108;2022-07-10T13:50:41;21.50;57.60
35700;DHT22;21818;51.078;12.108;2022-07-10T13:53:07;21.40;57.60
35700;DHT22;21818;51.078;12.108;2022-07-10T13:55:33;21.50;57.20
35700;DHT22;21818;51.078;12.108;2022-07-10T13:57:59;21.80;57.30
35700;DHT22;21818;51.078;12.108;2022-07-10T14:00:25;22.30;55.90
35700;DHT22;21818;51.078;12.108;2022-07-10T14:02:50;22.50;55.80
35700;DHT22;21818;51.078;12.108;2022-07-10T14:05:16;22.80;55.40
35700;DHT22;21818;51.078;12.108;2022-07-10T14:07:42;22.90;55.20
35700;DHT22;21818;51.078;12.108;2022-07-10T14:10:08;23.00;55.10
35700;DHT22;21818;51.078;12.108;2022-07-10T14:12:34;23.00;54.80
35700;DHT22;21818;51.078;12.108;2022-07-10T14:15:00;22.80;55.00
35700;DHT22;21818;51.078;12.108;2022-07-10T14:17:26;22.60;55.20
35700;DHT22;21818;51.078;12.108;2022-07-10T14:19:51;22.40;55.40
35700;DHT22;21818;51.078;12.108;2022-07-10T14:22:17;22.40;55.50
35700;DHT22;21818;51.078;12.108;2022-07-10T14:24:43;22.30;55.50
35700;DHT22;21818;51.078;12.108;2022-07-10T14:27:08;22.20;55.50
35700;DHT22;21818;51.078;12.108;2022-07-10T14:29:36;22.20;55.50
35700;DHT22;21818;51.078;12.108;2022-07-10T14:32:01;22.10;55.60
35700;DHT22;21818;51.078;12.108;2022-07-10T14:34:27;22.00;55.60
35700;DHT22;21818;51.078;12.108;2022-07-10T14:36:54;21.90;55.50
35700;DHT22;21818;51.078;12.108;2022-07-10T14:39:20;21.90;55.70
35700;DHT22;21818;51.078;12.108;2022-07-10T14:41:46;21.80;55.60
35700;DHT22;21818;51.078;12.108;2022-07-10T14:44:11;21.80;55.40
35700;DHT22;21818;51.078;12.108;2022-07-10T14:46:37;21.90;55.50
35700;DHT22;21818;51.078;12.108;2022-07-10T14:49:03;21.90;55.40
35700;DHT22;21818;51.078;12.108;2022-07-10T14:51:29;21.90;55.30
35700;DHT22;21818;51.078;12.108;2022-07-10T14:53:55;21.80;55.20
35700;DHT22;21818;51.078;12.108;2022-07-10T14:56:21;21.80;55.20
35700;DHT22;21818;51.078;12.108;2022-07-10T14:58:47;21.80;55.20
35700;DHT22;21818;51.078;12.108;2022-07-10T15:01:13;21.70;55.20
35700;DHT22;21818;51.078;12.108;2022-07-10T15:03:40;21.70;55.30
35700;DHT22;21818;51.078;12.108;2022-07-10T15:06:06;21.70;55.30
35700;DHT22;21818;51.078;12.108;2022-07-10T15:08:31;21.70;55.30
35700;DHT22;21818;51.078;12.108;2022-07-10T15:10:57;21.80;55.30
35700;DHT22;21818;51.078;12.108;2022-07-10T15:13:29;21.90;55.20
35700;DHT22;21818;51.078;12.108;2022-07-10T15:15:54;21.90;55.00
35700;DHT22;21818;51.078;12.108;2022-07-10T15:18:20;21.80;55.10
35700;DHT22;21818;51.078;12.108;2022-07-10T15:20:46;21.80;55.00
35700;DHT22;21818;51.078;12.108;2022-07-10T15:23:12;21.80;54.90
35700;DHT22;21818;51.078;12.108;2022-07-10T15:25:41;21.70;54.80
35700;DHT22;21818;51.078;12.108;2022-07-10T15:28:07;21.70;54.70
35700;DHT22;21818;51.078;12.108;2022-07-10T15:30:37;21.80;54.80
35700;DHT22;21818;51.078;12.108;2022-07-10T15:33:05;21.90;54.70
35700;DHT22;21818;51.078;12.108;2022-07-10T15:35:32;21.90;54.70
35700;DHT22;21818;51.078;12.108;2022-07-10T15:37:57;21.90;54.70
35700;DHT22;21818;51.078;12.108;2022-07-10T15:40:25;21.90;54.60
35700;DHT22;21818;51.078;12.108;2022-07-10T15:42:51;21.90;54.80
35700;DHT22;21818;51.078;12.108;2022-07-10T15:45:16;21.80;54.60
35700;DHT22;21818;51.078;12.108;2022-07-10T15:47:42;21.80;54.60